Home

PKWA Terminal Aerodrome Forecast (TAF)small logo


TAF provided by NWS Guam
2014/12/19 18:33
TAF PKWA 191728Z 1918/2018 05014KT P6SM VCSH FEW018 SCT050 
     FM192200 06017KT P6SM VCSH SCT018 SCT050 BKN120 
      TEMPO 1922/2002 5SM SHRA SCT014 BKN025

      



Site Map | Contact Us | Copyright © 2007 Atmospheric Technology Services Company. All rights reserved.